createdAt,value
2023-03-14T00:00:00.291Z,11.9
2023-03-14T00:01:07.074Z,11.9
2023-03-14T00:02:00.280Z,11.7
2023-03-14T00:03:00.423Z,11.7
2023-03-14T00:04:00.296Z,11.6
2023-03-14T00:05:00.323Z,11.6
2023-03-14T00:06:02.326Z,11.7
2023-03-14T00:07:00.250Z,11.7
2023-03-14T00:08:00.260Z,11.7
2023-03-14T00:09:00.284Z,11.7
2023-03-14T00:10:00.712Z,11.6
2023-03-14T00:11:08.556Z,11.6
2023-03-14T00:12:00.300Z,11.6
2023-03-14T00:13:00.260Z,11.6
2023-03-14T00:14:00.272Z,11.5
2023-03-14T00:15:00.328Z,11.5
2023-03-14T00:16:04.411Z,11.4
2023-03-14T00:17:00.249Z,11.4
2023-03-14T00:18:00.429Z,11.5
2023-03-14T00:19:00.293Z,11.5
2023-03-14T00:20:00.303Z,11.4
2023-03-14T00:21:00.907Z,11.4
2023-03-14T00:22:00.252Z,11.4
2023-03-14T00:23:00.289Z,11.4
2023-03-14T00:24:00.253Z,11.4
2023-03-14T00:25:00.328Z,11.4
2023-03-14T00:26:02.456Z,11.3
2023-03-14T00:27:00.249Z,11.3
2023-03-14T00:28:00.278Z,11.2
2023-03-14T00:29:00.280Z,11.2
2023-03-14T00:30:00.329Z,11.1
2023-03-14T00:31:02.495Z,11.1
2023-03-14T00:32:00.247Z,11.0
2023-03-14T00:33:00.354Z,11.0
2023-03-14T00:34:00.263Z,11.1
2023-03-14T00:35:00.255Z,11.1
2023-03-14T00:36:01.578Z,11.0
2023-03-14T00:37:00.298Z,11.0
2023-03-14T00:38:00.268Z,10.9
2023-03-14T00:39:00.259Z,10.9
2023-03-14T00:40:00.249Z,11.0
2023-03-14T00:41:03.226Z,11.0
2023-03-14T00:42:00.354Z,10.9
2023-03-14T00:43:00.273Z,10.9
2023-03-14T00:44:00.273Z,11.0
2023-03-14T00:45:00.265Z,11.0
2023-03-14T00:46:00.419Z,11.1
2023-03-14T00:47:00.335Z,11.1
2023-03-14T00:48:00.304Z,11.0
2023-03-14T00:49:00.252Z,11.0
2023-03-14T00:50:00.293Z,11.0
2023-03-14T00:51:00.927Z,11.0
2023-03-14T00:52:00.383Z,10.9
2023-03-14T00:53:00.287Z,10.9
2023-03-14T00:54:00.331Z,10.9
2023-03-14T00:55:00.259Z,10.9
2023-03-14T00:56:02.663Z,10.9
2023-03-14T00:57:00.278Z,10.9
2023-03-14T00:58:00.273Z,10.9
2023-03-14T00:59:00.277Z,10.9
2023-03-14T01:00:00.258Z,10.9
2023-03-14T01:01:05.086Z,10.9
2023-03-14T01:02:00.339Z,10.8
2023-03-14T01:03:00.895Z,10.8
2023-03-14T01:04:00.586Z,10.8
2023-03-14T01:05:00.286Z,10.8
2023-03-14T01:06:08.793Z,10.7
2023-03-14T01:07:00.258Z,10.7
2023-03-14T01:08:00.387Z,10.9
2023-03-14T01:09:00.521Z,10.9
2023-03-14T01:10:00.254Z,10.9
2023-03-14T01:11:04.512Z,10.9
2023-03-14T01:12:00.292Z,10.9
2023-03-14T01:13:00.282Z,10.9
2023-03-14T01:14:01.076Z,10.9
2023-03-14T01:15:00.259Z,10.9
2023-03-14T01:16:02.910Z,10.9
2023-03-14T01:17:00.254Z,10.9
2023-03-14T01:18:00.256Z,10.9
2023-03-14T01:19:00.434Z,10.9
2023-03-14T01:20:00.652Z,10.8
2023-03-14T01:21:00.822Z,10.8
2023-03-14T01:22:00.257Z,10.8
2023-03-14T01:23:00.268Z,10.8
2023-03-14T01:24:01.637Z,10.8
2023-03-14T01:25:00.266Z,10.8
2023-03-14T01:26:00.256Z,10.8
2023-03-14T01:27:00.253Z,10.8
2023-03-14T01:28:00.264Z,10.8
2023-03-14T01:29:00.765Z,10.8
2023-03-14T01:30:00.289Z,10.8
2023-03-14T01:31:04.197Z,10.8
2023-03-14T01:32:00.256Z,10.8
2023-03-14T01:33:00.266Z,10.8
2023-03-14T01:34:00.311Z,10.8
2023-03-14T01:35:00.285Z,10.8
2023-03-14T01:36:00.437Z,10.9
2023-03-14T01:37:00.260Z,10.9
2023-03-14T01:38:00.278Z,10.8
2023-03-14T01:39:00.620Z,10.8
2023-03-14T01:40:00.252Z,10.8
2023-03-14T01:41:00.789Z,10.8
2023-03-14T01:42:00.815Z,10.8
2023-03-14T01:43:10.219Z,10.8
2023-03-14T01:44:00.401Z,10.8
2023-03-14T01:45:01.101Z,10.8
2023-03-14T01:46:07.886Z,10.8
2023-03-14T01:47:00.285Z,10.8
2023-03-14T01:48:00.253Z,10.8
2023-03-14T01:49:01.250Z,10.8
2023-03-14T01:50:03.523Z,10.8
2023-03-14T01:51:01.280Z,10.8
2023-03-14T01:52:01.309Z,10.8
2023-03-14T01:53:00.304Z,10.8
2023-03-14T01:54:09.889Z,10.8
2023-03-14T01:55:05.572Z,10.8
2023-03-14T01:56:00.361Z,10.8
2023-03-14T01:57:04.930Z,10.8
2023-03-14T01:58:02.974Z,10.8
2023-03-14T01:59:00.984Z,10.8
2023-03-14T02:00:05.001Z,10.8
2023-03-14T02:01:01.677Z,10.8
2023-03-14T02:02:00.719Z,10.8
2023-03-14T02:03:06.947Z,10.8
2023-03-14T02:04:01.542Z,10.7
2023-03-14T02:05:00.413Z,10.7
2023-03-14T02:06:04.365Z,10.8
2023-03-14T02:07:03.921Z,10.8
2023-03-14T02:08:01.073Z,10.6
2023-03-14T02:09:01.193Z,10.6
2023-03-14T02:10:01.608Z,10.5
2023-03-14T02:11:00.339Z,10.5
2023-03-14T02:12:00.342Z,10.7
2023-03-14T02:13:02.043Z,10.7
2023-03-14T02:14:01.620Z,10.6
2023-03-14T02:15:00.369Z,10.6
2023-03-14T02:16:00.441Z,10.6
2023-03-14T02:17:01.572Z,10.6
2023-03-14T02:18:01.366Z,10.7
2023-03-14T02:19:00.439Z,10.7
2023-03-14T02:20:01.367Z,10.6
2023-03-14T02:21:02.927Z,10.6
2023-03-14T02:22:00.274Z,10.7
2023-03-14T02:23:00.488Z,10.7
2023-03-14T02:24:10.195Z,10.7
2023-03-14T02:25:10.200Z,10.7
2023-03-14T02:26:05.282Z,10.8
2023-03-14T02:27:07.679Z,10.8
2023-03-14T02:28:00.583Z,10.7
2023-03-14T02:29:00.367Z,10.7
2023-03-14T02:30:02.556Z,10.6
2023-03-14T02:31:00.497Z,10.6
2023-03-14T02:32:00.701Z,10.6
2023-03-14T02:33:04.186Z,10.6
2023-03-14T02:34:01.293Z,10.5
2023-03-14T02:35:03.238Z,10.5
2023-03-14T02:36:01.805Z,10.5
2023-03-14T02:37:00.828Z,10.5
2023-03-14T02:38:09.241Z,10.6
2023-03-14T02:39:06.910Z,10.6
2023-03-14T02:40:00.404Z,10.7
2023-03-14T02:41:00.324Z,10.7
2023-03-14T02:42:00.303Z,10.7
2023-03-14T02:43:00.311Z,10.7
2023-03-14T02:44:00.309Z,10.6
2023-03-14T02:45:10.226Z,10.6
2023-03-14T02:46:00.821Z,10.6
2023-03-14T02:47:00.453Z,10.6
2023-03-14T02:48:02.534Z,10.6
2023-03-14T02:49:03.428Z,10.6
2023-03-14T02:50:03.079Z,10.5
2023-03-14T02:51:00.869Z,10.5
2023-03-14T02:52:00.251Z,10.5
2023-03-14T02:53:00.280Z,10.5
2023-03-14T02:54:00.257Z,10.6
2023-03-14T02:55:00.297Z,10.6
2023-03-14T02:56:00.409Z,10.6
2023-03-14T02:57:00.271Z,10.6
2023-03-14T02:58:00.274Z,10.6
2023-03-14T02:59:02.939Z,10.6
2023-03-14T03:00:01.148Z,10.6
2023-03-14T03:01:00.309Z,10.6
2023-03-14T03:02:00.251Z,10.6
2023-03-14T03:03:00.467Z,10.6
2023-03-14T03:04:00.275Z,10.7
2023-03-14T03:05:00.286Z,10.7
2023-03-14T03:06:00.455Z,10.7
2023-03-14T03:07:00.261Z,10.7
2023-03-14T03:08:00.366Z,10.7
2023-03-14T03:09:00.534Z,10.7
2023-03-14T03:10:00.275Z,10.7
2023-03-14T03:11:00.475Z,10.7
2023-03-14T03:12:00.295Z,10.7
2023-03-14T03:13:00.284Z,10.7
2023-03-14T03:14:00.273Z,10.7
2023-03-14T03:15:00.264Z,10.7
2023-03-14T03:16:00.272Z,10.7
2023-03-14T03:17:00.371Z,10.7
2023-03-14T03:18:00.259Z,10.6
2023-03-14T03:19:00.278Z,10.6
2023-03-14T03:20:00.271Z,10.7
2023-03-14T03:21:02.451Z,10.7
2023-03-14T03:22:00.282Z,10.6
2023-03-14T03:23:00.282Z,10.6
2023-03-14T03:24:00.272Z,10.7
2023-03-14T03:25:00.287Z,10.7
2023-03-14T03:26:00.284Z,10.7
2023-03-14T03:27:00.278Z,10.7
2023-03-14T03:28:00.277Z,10.7
2023-03-14T03:29:00.312Z,10.7
2023-03-14T03:30:00.601Z,10.6
2023-03-14T03:31:06.201Z,10.6
2023-03-14T03:32:00.289Z,10.6
2023-03-14T03:33:00.313Z,10.6
2023-03-14T03:34:00.256Z,10.6
2023-03-14T03:35:01.313Z,10.6
2023-03-14T03:36:00.352Z,10.6
2023-03-14T03:37:00.295Z,10.6
2023-03-14T03:38:00.295Z,10.7
2023-03-14T03:39:00.255Z,10.7
2023-03-14T03:40:00.299Z,10.7
2023-03-14T03:41:02.541Z,10.7
2023-03-14T03:42:00.279Z,10.6
2023-03-14T03:43:00.284Z,10.6
2023-03-14T03:44:00.269Z,10.6
2023-03-14T03:45:00.842Z,10.6
2023-03-14T03:46:08.040Z,10.7
2023-03-14T03:47:00.284Z,10.7
2023-03-14T03:48:00.289Z,10.7
2023-03-14T03:49:00.427Z,10.7
2023-03-14T03:50:00.290Z,10.7
2023-03-14T03:51:00.336Z,10.7
2023-03-14T03:52:00.452Z,10.7
2023-03-14T03:53:00.259Z,10.7
2023-03-14T03:54:00.284Z,10.8
2023-03-14T03:55:00.257Z,10.8
2023-03-14T03:56:00.263Z,10.6
2023-03-14T03:57:00.337Z,10.6
2023-03-14T03:58:00.281Z,10.6
2023-03-14T03:59:00.292Z,10.6
2023-03-14T04:00:00.254Z,10.6
2023-03-14T04:01:00.270Z,10.6
2023-03-14T04:02:00.378Z,10.6
2023-03-14T04:03:00.273Z,10.6
2023-03-14T04:04:00.399Z,10.6
2023-03-14T04:05:00.255Z,10.6
2023-03-14T04:06:01.295Z,10.6
2023-03-14T04:07:00.277Z,10.6
2023-03-14T04:08:00.666Z,10.7
2023-03-14T04:09:00.294Z,10.7
2023-03-14T04:10:00.280Z,10.6
2023-03-14T04:11:01.000Z,10.6
2023-03-14T04:12:00.303Z,10.7
2023-03-14T04:13:00.248Z,10.7
2023-03-14T04:14:00.296Z,10.7
2023-03-14T04:15:00.262Z,10.7
2023-03-14T04:16:00.337Z,10.6
2023-03-14T04:17:00.258Z,10.6
2023-03-14T04:18:00.297Z,10.6
2023-03-14T04:19:00.797Z,10.6
2023-03-14T04:20:00.257Z,10.6
2023-03-14T04:21:00.256Z,10.6
2023-03-14T04:22:00.275Z,10.6
2023-03-14T04:23:00.256Z,10.6
2023-03-14T04:24:00.268Z,10.6
2023-03-14T04:25:00.303Z,10.6
2023-03-14T04:26:00.254Z,10.5
2023-03-14T04:27:00.316Z,10.5
2023-03-14T04:28:00.759Z,10.5
2023-03-14T04:29:00.280Z,10.5
2023-03-14T04:30:00.257Z,10.5
2023-03-14T04:31:06.140Z,10.5
2023-03-14T04:32:00.252Z,10.4
2023-03-14T04:33:00.469Z,10.4
2023-03-14T04:34:00.312Z,10.5
2023-03-14T04:35:00.261Z,10.5
2023-03-14T04:36:00.314Z,10.5
2023-03-14T04:37:00.289Z,10.5
2023-03-14T04:38:00.311Z,10.5
2023-03-14T04:39:01.842Z,10.5
2023-03-14T04:40:00.253Z,10.5
2023-03-14T04:41:00.572Z,10.5
2023-03-14T04:42:00.285Z,10.5
2023-03-14T04:43:00.260Z,10.5
2023-03-14T04:44:00.302Z,10.5
2023-03-14T04:45:00.499Z,10.5
2023-03-14T04:46:00.282Z,10.4
2023-03-14T04:47:00.362Z,10.4
2023-03-14T04:48:00.283Z,10.4
2023-03-14T04:49:00.271Z,10.4
2023-03-14T04:50:00.317Z,10.4
2023-03-14T04:51:00.277Z,10.4
2023-03-14T04:52:00.275Z,10.4
2023-03-14T04:53:00.279Z,10.4
2023-03-14T04:54:00.277Z,10.4
2023-03-14T04:55:00.252Z,10.4
2023-03-14T04:56:00.261Z,10.5
2023-03-14T04:57:00.318Z,10.5
2023-03-14T04:58:00.276Z,10.3
2023-03-14T04:59:00.259Z,10.3
2023-03-14T05:00:00.250Z,10.4
2023-03-14T05:01:02.030Z,10.4
2023-03-14T05:02:00.412Z,10.4
2023-03-14T05:03:00.341Z,10.4
2023-03-14T05:04:00.264Z,10.3
2023-03-14T05:05:00.362Z,10.3
2023-03-14T05:06:00.260Z,10.3
2023-03-14T05:07:00.385Z,10.3
2023-03-14T05:08:00.308Z,10.2
2023-03-14T05:09:00.511Z,10.2
2023-03-14T05:10:00.273Z,10.3
2023-03-14T05:11:00.259Z,10.3
2023-03-14T05:12:00.276Z,10.3
2023-03-14T05:13:00.275Z,10.3
2023-03-14T05:14:00.317Z,10.2
2023-03-14T05:15:00.306Z,10.2
2023-03-14T05:16:08.496Z,10.3
2023-03-14T05:17:00.254Z,10.3
2023-03-14T05:18:00.289Z,10.3
2023-03-14T05:19:00.288Z,10.3
2023-03-14T05:20:00.293Z,10.2
2023-03-14T05:21:00.381Z,10.2
2023-03-14T05:22:00.290Z,10.1
2023-03-14T05:23:00.273Z,10.1
2023-03-14T05:24:00.263Z,10.2
2023-03-14T05:25:00.294Z,10.2
2023-03-14T05:26:00.404Z,10.1
2023-03-14T05:27:00.323Z,10.1
2023-03-14T05:28:00.322Z,10.1
2023-03-14T05:29:00.273Z,10.1
2023-03-14T05:30:00.299Z,10.2
2023-03-14T05:31:00.280Z,10.2
2023-03-14T05:32:00.278Z,9.9
2023-03-14T05:33:00.332Z,9.9
2023-03-14T05:34:00.248Z,9.9
2023-03-14T05:35:00.404Z,9.9
2023-03-14T05:36:00.282Z,10.0
2023-03-14T05:37:00.251Z,10.0
2023-03-14T05:38:00.275Z,10.0
2023-03-14T05:39:00.266Z,10.0
2023-03-14T05:40:00.298Z,10.1
2023-03-14T05:41:00.275Z,10.1
2023-03-14T05:42:00.276Z,9.9
2023-03-14T05:43:00.308Z,9.9
2023-03-14T05:44:00.253Z,10.0
2023-03-14T05:45:00.248Z,10.0
2023-03-14T05:46:00.300Z,10.0
2023-03-14T05:47:00.261Z,10.0
2023-03-14T05:48:00.256Z,9.9
2023-03-14T05:49:00.572Z,9.9
2023-03-14T05:50:00.279Z,10.0
2023-03-14T05:51:00.279Z,10.0
2023-03-14T05:52:00.266Z,9.9
2023-03-14T05:53:00.247Z,9.9
2023-03-14T05:54:00.275Z,9.8
2023-03-14T05:55:00.263Z,9.8
2023-03-14T05:56:00.301Z,9.8
2023-03-14T05:57:00.290Z,9.8
2023-03-14T05:58:00.251Z,9.7
2023-03-14T05:59:00.284Z,9.7
2023-03-14T06:00:00.357Z,9.8
2023-03-14T06:01:02.367Z,9.8
2023-03-14T06:02:00.346Z,9.8
2023-03-14T06:03:00.356Z,9.8
2023-03-14T06:04:00.386Z,9.8
2023-03-14T06:05:00.293Z,9.8
2023-03-14T06:06:00.367Z,9.8
2023-03-14T06:07:00.273Z,9.8
2023-03-14T06:08:00.296Z,9.9
2023-03-14T06:09:00.244Z,9.9
2023-03-14T06:10:00.255Z,9.9
2023-03-14T06:11:02.258Z,9.9
2023-03-14T06:12:00.252Z,9.9
2023-03-14T06:13:00.259Z,9.9
2023-03-14T06:14:00.272Z,9.9
2023-03-14T06:15:00.347Z,9.9
2023-03-14T06:16:00.392Z,9.9
2023-03-14T06:17:00.286Z,9.9
2023-03-14T06:18:00.282Z,9.8
2023-03-14T06:19:00.281Z,9.8
2023-03-14T06:20:00.255Z,9.9
2023-03-14T06:21:00.330Z,9.9
2023-03-14T06:22:00.287Z,9.9
2023-03-14T06:23:00.275Z,9.9
2023-03-14T06:24:00.452Z,9.9
2023-03-14T06:25:00.250Z,9.9
2023-03-14T06:26:00.272Z,10.0
2023-03-14T06:27:00.306Z,10.0
2023-03-14T06:28:00.296Z,10.0
2023-03-14T06:29:00.247Z,10.0
2023-03-14T06:30:00.251Z,10.0
2023-03-14T06:31:00.439Z,10.0
2023-03-14T06:32:00.284Z,10.1
2023-03-14T06:33:00.376Z,10.1
2023-03-14T06:34:00.307Z,10.0
2023-03-14T06:35:00.256Z,10.0
2023-03-14T06:36:00.307Z,10.1
2023-03-14T06:37:00.255Z,10.1
2023-03-14T06:38:00.271Z,10.1
2023-03-14T06:39:00.283Z,10.1
2023-03-14T06:40:00.258Z,10.2
2023-03-14T06:41:07.620Z,10.2
2023-03-14T06:42:00.256Z,10.1
2023-03-14T06:43:00.271Z,10.1
2023-03-14T06:44:00.319Z,10.1
2023-03-14T06:45:00.251Z,10.1
2023-03-14T06:46:00.303Z,10.1
2023-03-14T06:47:00.279Z,10.1
2023-03-14T06:48:00.282Z,10.1
2023-03-14T06:49:00.279Z,10.1
2023-03-14T06:50:00.311Z,10.1
2023-03-14T06:51:00.399Z,10.1
2023-03-14T06:52:00.278Z,10.1
2023-03-14T06:53:00.382Z,10.1
2023-03-14T06:54:00.289Z,10.1
2023-03-14T06:55:00.260Z,10.1
2023-03-14T06:56:00.270Z,10.2
2023-03-14T06:57:00.272Z,10.2
2023-03-14T06:58:00.252Z,10.2
2023-03-14T06:59:00.277Z,10.2
2023-03-14T07:00:00.352Z,10.2
2023-03-14T07:01:00.365Z,10.2
2023-03-14T07:02:00.286Z,10.4
2023-03-14T07:03:00.892Z,10.4
2023-03-14T07:04:00.655Z,10.3
2023-03-14T07:05:00.263Z,10.3
2023-03-14T07:06:00.294Z,10.3
2023-03-14T07:07:00.257Z,10.3
2023-03-14T07:08:00.291Z,10.3
2023-03-14T07:09:01.740Z,10.3
2023-03-14T07:10:00.242Z,10.3
2023-03-14T07:11:00.272Z,10.3
2023-03-14T07:12:00.373Z,10.3
2023-03-14T07:13:00.316Z,10.3
2023-03-14T07:14:00.276Z,10.3
2023-03-14T07:15:11.956Z,10.3
2023-03-14T07:16:00.470Z,10.4
2023-03-14T07:17:00.255Z,10.4
2023-03-14T07:18:00.287Z,10.4
2023-03-14T07:19:00.561Z,10.4
2023-03-14T07:20:00.250Z,10.4
2023-03-14T07:21:00.280Z,10.4
2023-03-14T07:22:00.276Z,10.4
2023-03-14T07:23:00.291Z,10.4
2023-03-14T07:24:00.368Z,10.4
2023-03-14T07:25:00.333Z,10.4
2023-03-14T07:26:00.420Z,10.3
2023-03-14T07:27:00.289Z,10.3
2023-03-14T07:28:00.292Z,10.3
2023-03-14T07:29:00.381Z,10.3
2023-03-14T07:30:00.320Z,10.3
2023-03-14T07:31:00.350Z,10.3
2023-03-14T07:32:00.302Z,10.0
2023-03-14T07:33:00.300Z,10.0
2023-03-14T07:34:00.271Z,9.8
2023-03-14T07:35:00.289Z,9.8
2023-03-14T07:36:00.465Z,9.5
2023-03-14T07:37:00.304Z,9.5
2023-03-14T07:38:00.280Z,9.3
2023-03-14T07:39:00.290Z,9.3
2023-03-14T07:40:00.271Z,9.4
2023-03-14T07:41:01.250Z,9.4
2023-03-14T07:42:00.602Z,9.3
2023-03-14T07:43:00.264Z,9.3
2023-03-14T07:44:00.258Z,9.3
2023-03-14T07:45:00.309Z,9.3
2023-03-14T07:46:00.638Z,9.2
2023-03-14T07:47:00.272Z,9.2
2023-03-14T07:48:00.257Z,9.0
2023-03-14T07:49:00.308Z,9.0
2023-03-14T07:50:00.278Z,9.1
2023-03-14T07:51:00.277Z,9.1
2023-03-14T07:52:00.264Z,9.1
2023-03-14T07:53:00.261Z,9.1
2023-03-14T07:54:00.392Z,8.9
2023-03-14T07:55:00.292Z,8.9
2023-03-14T07:56:00.268Z,8.8
2023-03-14T07:57:00.277Z,8.8
2023-03-14T07:58:00.302Z,8.6
2023-03-14T07:59:00.317Z,8.6
2023-03-14T08:00:00.310Z,8.6
2023-03-14T08:01:00.285Z,8.6
2023-03-14T08:02:00.261Z,8.6
2023-03-14T08:03:00.340Z,8.6
2023-03-14T08:04:00.358Z,8.6
2023-03-14T08:05:00.272Z,8.6
2023-03-14T08:06:00.285Z,8.6
2023-03-14T08:07:00.256Z,8.6
2023-03-14T08:08:00.294Z,8.6
2023-03-14T08:09:00.294Z,8.6
2023-03-14T08:10:00.254Z,8.6
2023-03-14T08:11:04.706Z,8.6
2023-03-14T08:12:00.255Z,8.5
2023-03-14T08:13:00.976Z,8.5
2023-03-14T08:14:00.296Z,8.5
2023-03-14T08:15:00.288Z,8.5
2023-03-14T08:16:00.422Z,8.5
2023-03-14T08:17:00.265Z,8.5
2023-03-14T08:18:00.298Z,8.4
2023-03-14T08:19:00.298Z,8.4
2023-03-14T08:20:00.259Z,8.4
2023-03-14T08:21:00.286Z,8.4
2023-03-14T08:22:00.306Z,8.4
2023-03-14T08:23:00.859Z,8.4
2023-03-14T08:24:00.262Z,8.4
2023-03-14T08:25:00.266Z,8.4
2023-03-14T08:26:00.284Z,8.3
2023-03-14T08:27:00.322Z,8.3
2023-03-14T08:28:00.267Z,8.3
2023-03-14T08:29:00.307Z,8.3
2023-03-14T08:30:00.271Z,8.3
2023-03-14T08:31:00.589Z,8.3
2023-03-14T08:32:00.447Z,8.4
2023-03-14T08:33:00.652Z,8.4
2023-03-14T08:34:00.466Z,8.4
2023-03-14T08:35:00.433Z,8.4
2023-03-14T08:36:00.659Z,8.5
2023-03-14T08:39:00.327Z,8.5
2023-03-14T08:40:00.603Z,8.6
2023-03-14T08:41:01.025Z,8.6
2023-03-14T08:42:00.288Z,8.6
2023-03-14T08:43:00.247Z,8.6
2023-03-14T08:44:00.277Z,8.6
2023-03-14T08:45:00.346Z,8.6
2023-03-14T08:46:00.797Z,8.5
2023-03-14T08:47:00.333Z,8.5
2023-03-14T08:49:00.587Z,8.6
2023-03-14T08:50:00.610Z,8.4
2023-03-14T08:51:04.269Z,8.4
2023-03-14T08:52:02.572Z,8.4
2023-03-14T08:53:00.602Z,8.4
2023-03-14T08:54:00.585Z,8.4
2023-03-14T08:55:00.548Z,8.4
2023-03-14T08:56:00.569Z,8.5
2023-03-14T08:57:00.583Z,8.5
2023-03-14T08:58:00.549Z,8.5
2023-03-14T08:59:00.584Z,8.5
2023-03-14T09:00:00.602Z,8.4
2023-03-14T09:01:00.604Z,8.4
2023-03-14T09:02:00.560Z,8.4
2023-03-14T09:03:00.613Z,8.4
2023-03-14T09:04:00.581Z,8.3
2023-03-14T09:05:00.566Z,8.3
2023-03-14T09:06:04.427Z,8.3
2023-03-14T09:07:00.577Z,8.3
2023-03-14T09:08:00.973Z,8.4
2023-03-14T09:09:00.614Z,8.4
2023-03-14T09:10:00.573Z,8.3
2023-03-14T09:11:00.737Z,8.3
2023-03-14T09:12:00.572Z,8.3
2023-03-14T09:13:00.570Z,8.3
2023-03-14T09:14:00.598Z,8.2
2023-03-14T09:15:00.595Z,8.2
2023-03-14T09:16:00.589Z,8.3
2023-03-14T09:17:00.557Z,8.3
2023-03-14T09:18:00.568Z,8.3
2023-03-14T09:19:00.730Z,8.3
2023-03-14T09:20:01.176Z,8.3
2023-03-14T09:21:00.828Z,8.3
2023-03-14T09:22:00.573Z,8.2
2023-03-14T09:23:00.589Z,8.2
2023-03-14T09:24:00.578Z,8.1
2023-03-14T09:25:00.575Z,8.1
2023-03-14T09:26:00.677Z,7.8
2023-03-14T09:27:00.582Z,7.8
2023-03-14T09:28:00.600Z,7.8
2023-03-14T09:29:00.549Z,7.8
2023-03-14T09:30:00.628Z,7.8
2023-03-14T09:31:09.067Z,7.8
2023-03-14T09:32:00.670Z,7.9
2023-03-14T09:33:00.687Z,7.9
2023-03-14T09:34:00.925Z,7.9
2023-03-14T09:35:00.579Z,7.9
2023-03-14T09:36:00.869Z,7.9
2023-03-14T09:37:00.566Z,7.9
2023-03-14T09:38:00.576Z,7.8
2023-03-14T09:39:00.590Z,7.8
2023-03-14T09:40:00.616Z,7.6
2023-03-14T09:41:01.392Z,7.6
2023-03-14T09:42:02.329Z,7.7
2023-03-14T09:43:00.803Z,7.7
2023-03-14T09:44:02.706Z,7.4
2023-03-14T09:45:01.737Z,7.4
2023-03-14T09:46:01.781Z,7.4
2023-03-14T09:47:04.802Z,7.4
2023-03-14T09:48:02.034Z,7.5
2023-03-14T09:49:00.660Z,7.5
2023-03-14T09:50:00.907Z,7.5
2023-03-14T09:51:04.617Z,7.5
2023-03-14T09:52:04.227Z,7.6
2023-03-14T09:53:03.142Z,7.6
2023-03-14T09:54:01.189Z,7.7
2023-03-14T09:55:03.633Z,7.7
2023-03-14T09:56:01.266Z,7.7
2023-03-14T09:57:00.599Z,7.7
2023-03-14T09:58:03.546Z,7.7
2023-03-14T09:59:03.060Z,7.7
2023-03-14T10:00:05.209Z,7.8
2023-03-14T10:01:03.621Z,7.8
2023-03-14T10:02:01.389Z,7.9
2023-03-14T10:03:10.523Z,7.9
2023-03-14T10:04:02.453Z,7.9
2023-03-14T10:05:06.657Z,7.9
2023-03-14T10:06:01.220Z,7.8
2023-03-14T10:07:01.067Z,7.8
2023-03-14T10:08:00.557Z,7.9
2023-03-14T10:09:00.783Z,7.9
2023-03-14T10:10:00.782Z,7.9
2023-03-14T10:11:00.602Z,7.9
2023-03-14T10:12:01.198Z,7.8
2023-03-14T10:13:10.490Z,7.8
2023-03-14T10:14:01.525Z,7.9
2023-03-14T10:15:03.591Z,7.9
2023-03-14T10:16:02.592Z,7.7
2023-03-14T10:17:10.524Z,7.7
2023-03-14T10:18:01.491Z,7.8
2023-03-14T10:19:05.188Z,7.8
2023-03-14T10:20:00.578Z,7.9
2023-03-14T10:21:02.419Z,7.9
2023-03-14T10:22:01.112Z,8.0
2023-03-14T10:23:01.885Z,8.0
2023-03-14T10:24:09.207Z,8.0
2023-03-14T10:25:03.266Z,8.0
2023-03-14T10:26:10.503Z,7.9
2023-03-14T10:27:01.824Z,7.9
2023-03-14T10:28:01.624Z,8.0
2023-03-14T10:29:03.236Z,8.0
2023-03-14T10:30:02.300Z,8.0
2023-03-14T10:31:00.988Z,8.0
2023-03-14T10:32:03.349Z,7.9
2023-03-14T10:33:09.298Z,7.9
2023-03-14T10:34:03.558Z,7.8
2023-03-14T10:35:06.220Z,7.8
2023-03-14T10:36:02.120Z,7.9
2023-03-14T10:37:10.503Z,7.9
2023-03-14T10:38:01.447Z,8.1
2023-03-14T10:39:10.489Z,8.1
2023-03-14T10:40:01.484Z,7.9
2023-03-14T10:41:01.749Z,7.9
2023-03-14T10:42:03.259Z,8.0
2023-03-14T10:43:03.549Z,8.0
2023-03-14T10:44:01.851Z,8.0
2023-03-14T10:45:02.661Z,8.0
2023-03-14T10:46:06.155Z,8.1
2023-03-14T10:47:02.350Z,8.1
2023-03-14T10:48:06.283Z,8.2
2023-03-14T10:49:04.553Z,8.2
2023-03-14T10:50:10.481Z,8.2
2023-03-14T10:51:01.557Z,8.2
2023-03-14T10:52:01.271Z,8.2
2023-03-14T10:53:03.202Z,8.2
2023-03-14T10:54:03.811Z,8.2
2023-03-14T10:55:03.173Z,8.2
2023-03-14T10:56:02.628Z,8.3
2023-03-14T10:57:01.225Z,8.3
2023-03-14T10:58:00.600Z,8.3
2023-03-14T10:59:00.842Z,8.3
2023-03-14T11:00:00.666Z,8.2
2023-03-14T11:01:06.499Z,8.2
2023-03-14T11:02:11.466Z,8.3
2023-03-14T11:03:08.218Z,8.3
2023-03-14T11:04:10.494Z,8.3
2023-03-14T11:05:09.098Z,8.3
2023-03-14T11:06:06.582Z,8.4
2023-03-14T11:07:10.479Z,8.4
2023-03-14T11:08:02.150Z,8.4
2023-03-14T11:09:01.578Z,8.4
2023-03-14T11:10:10.489Z,8.4
2023-03-14T11:11:07.704Z,8.4
2023-03-14T11:12:08.464Z,8.4
2023-03-14T11:13:10.485Z,8.4
2023-03-14T11:14:01.541Z,8.6
2023-03-14T11:15:05.481Z,8.6
2023-03-14T11:16:10.602Z,8.8
2023-03-14T11:17:10.482Z,8.8
2023-03-14T11:18:00.556Z,8.4
2023-03-14T11:19:10.510Z,8.4
2023-03-14T11:20:07.953Z,8.2
2023-03-14T11:21:10.501Z,8.2
2023-03-14T11:22:03.792Z,8.1
2023-03-14T11:23:07.391Z,8.1
2023-03-14T11:24:08.075Z,8.2
2023-03-14T11:25:10.506Z,8.2
2023-03-14T11:26:07.999Z,8.2
2023-03-14T11:27:06.802Z,8.2
2023-03-14T11:28:08.014Z,7.9
2023-03-14T11:29:10.504Z,7.9
2023-03-14T11:30:10.484Z,8.1
2023-03-14T11:31:10.519Z,8.1
2023-03-14T11:32:02.859Z,8.2
2023-03-14T11:33:07.967Z,8.2
2023-03-14T11:34:00.528Z,8.1
2023-03-14T11:35:03.097Z,8.1
2023-03-14T11:36:10.265Z,8.2
2023-03-14T11:37:06.246Z,8.2
2023-03-14T11:38:10.510Z,8.3
2023-03-14T11:39:00.642Z,8.3
2023-03-14T11:40:10.508Z,8.2
2023-03-14T11:41:00.610Z,8.2
2023-03-14T11:42:00.961Z,8.3
2023-03-14T11:43:00.697Z,8.3
2023-03-14T11:44:02.545Z,8.3
2023-03-14T11:45:00.860Z,8.3
2023-03-14T11:46:04.501Z,8.5
2023-03-14T11:47:04.240Z,8.5
2023-03-14T11:48:10.515Z,8.5
2023-03-14T11:49:00.557Z,8.5
2023-03-14T11:50:04.784Z,8.7
2023-03-14T11:51:02.583Z,8.7
2023-03-14T11:52:05.509Z,8.5
2023-03-14T11:53:10.486Z,8.5
2023-03-14T11:54:00.536Z,8.4
2023-03-14T11:55:00.564Z,8.4
2023-03-14T11:56:00.645Z,8.5
2023-03-14T11:57:03.354Z,8.5
2023-03-14T11:58:09.813Z,8.6
2023-03-14T11:59:05.117Z,8.6
2023-03-14T12:00:00.528Z,8.5
2023-03-14T12:01:06.922Z,8.5
2023-03-14T12:02:03.849Z,8.3
2023-03-14T12:03:09.386Z,8.3
2023-03-14T12:04:05.770Z,8.2
2023-03-14T12:05:10.509Z,8.2
2023-03-14T12:06:05.374Z,8.1
2023-03-14T12:07:03.240Z,8.1
2023-03-14T12:08:10.531Z,8.1
2023-03-14T12:09:02.428Z,8.1
2023-03-14T12:10:02.136Z,7.9
2023-03-14T12:11:04.606Z,7.9
2023-03-14T12:12:01.976Z,7.9
2023-03-14T12:13:00.617Z,7.9
2023-03-14T12:14:00.906Z,7.9
2023-03-14T12:15:01.340Z,7.9
2023-03-14T12:16:03.825Z,8.0
2023-03-14T12:17:10.479Z,8.0
2023-03-14T12:18:00.622Z,8.1
2023-03-14T12:19:10.483Z,8.1
2023-03-14T12:20:10.493Z,8.1
2023-03-14T12:21:02.291Z,8.1
2023-03-14T12:22:05.802Z,8.3
2023-03-14T12:23:03.319Z,8.3
2023-03-14T12:24:00.609Z,8.3
2023-03-14T12:25:03.495Z,8.3
2023-03-14T12:26:08.108Z,8.3
2023-03-14T12:27:01.963Z,8.3
2023-03-14T12:28:05.225Z,8.4
2023-03-14T12:29:00.578Z,8.4
2023-03-14T12:30:03.559Z,8.7
2023-03-14T12:31:10.500Z,8.7
2023-03-14T12:32:00.582Z,8.8
2023-03-14T12:33:10.523Z,8.8
2023-03-14T12:34:01.590Z,8.7
2023-03-14T12:35:07.542Z,8.7
2023-03-14T12:36:01.616Z,8.9
2023-03-14T12:37:06.203Z,8.9
2023-03-14T12:38:03.030Z,8.9
2023-03-14T12:39:07.294Z,8.9
2023-03-14T12:40:01.635Z,8.8
2023-03-14T12:41:06.230Z,8.8
2023-03-14T12:42:02.233Z,8.8
2023-03-14T12:43:01.916Z,8.8
2023-03-14T12:44:10.472Z,8.7
2023-03-14T12:45:10.480Z,8.7
2023-03-14T12:46:10.526Z,8.6
2023-03-14T12:47:10.502Z,8.6
2023-03-14T12:48:03.432Z,8.4
2023-03-14T12:49:00.551Z,8.4
2023-03-14T12:50:07.155Z,8.4
2023-03-14T12:51:02.669Z,8.4
2023-03-14T12:52:01.422Z,8.6
2023-03-14T12:53:10.490Z,8.6
2023-03-14T12:54:10.507Z,8.6
2023-03-14T12:55:06.678Z,8.6
2023-03-14T12:56:05.906Z,8.5
2023-03-14T12:57:03.804Z,8.5
2023-03-14T12:58:00.553Z,8.4
2023-03-14T12:59:05.630Z,8.4
2023-03-14T13:00:02.353Z,8.5
2023-03-14T13:01:02.027Z,8.5
2023-03-14T13:02:02.895Z,8.6
2023-03-14T13:03:10.500Z,8.6
2023-03-14T13:04:10.091Z,8.7
2023-03-14T13:05:05.546Z,8.7
2023-03-14T13:06:01.747Z,8.7
2023-03-14T13:07:01.292Z,8.7
2023-03-14T13:08:00.572Z,8.9
2023-03-14T13:09:10.484Z,8.9
2023-03-14T13:11:01.978Z,8.8
2023-03-14T13:12:02.340Z,8.9
2023-03-14T13:13:10.504Z,8.9
2023-03-14T13:14:00.630Z,9.0
2023-03-14T13:15:01.353Z,9.0
2023-03-14T13:16:01.228Z,9.1
2023-03-14T13:17:10.432Z,9.1
2023-03-14T13:18:03.866Z,9.0
2023-03-14T13:19:02.858Z,9.0
2023-03-14T13:20:03.606Z,9.1
2023-03-14T13:21:10.514Z,9.1
2023-03-14T13:22:02.893Z,9.2
2023-03-14T13:23:00.951Z,9.2
2023-03-14T13:24:02.252Z,9.2
2023-03-14T13:25:02.392Z,9.2
2023-03-14T13:26:01.176Z,9.3
2023-03-14T13:27:00.594Z,9.3
2023-03-14T13:28:01.017Z,9.3
2023-03-14T13:29:08.062Z,9.3
2023-03-14T13:30:10.482Z,9.2
2023-03-14T13:31:02.066Z,9.2
2023-03-14T13:32:01.911Z,9.1
2023-03-14T13:33:03.302Z,9.1
2023-03-14T13:34:02.098Z,9.1
2023-03-14T13:35:00.563Z,9.1